sensor_id;sensor_type;location;lat;lon;timestamp;pressure;altitude;pressure_sealevel;temperature;humidity
19594;BME280;9944;48.240;16.478;2023-05-10T00:01:24;99657.59;;;11.51;55.68
19594;BME280;9944;48.240;16.478;2023-05-10T00:05:27;99652.34;;;11.48;55.75
19594;BME280;9944;48.240;16.478;2023-05-10T00:09:30;99648.84;;;11.44;56.28
19594;BME280;9944;48.240;16.478;2023-05-10T00:13:33;99648.88;;;11.40;57.03
19594;BME280;9944;48.240;16.478;2023-05-10T00:17:38;99640.97;;;11.36;56.61
19594;BME280;9944;48.240;16.478;2023-05-10T00:21:41;99638.41;;;11.32;57.06
19594;BME280;9944;48.240;16.478;2023-05-10T00:25:44;99633.09;;;11.30;56.98
19594;BME280;9944;48.240;16.478;2023-05-10T00:29:47;99638.41;;;11.26;56.99
19594;BME280;9944;48.240;16.478;2023-05-10T00:33:51;99626.09;;;11.25;57.34
19594;BME280;9944;48.240;16.478;2023-05-10T00:37:55;99622.56;;;11.23;57.41
19594;BME280;9944;48.240;16.478;2023-05-10T00:41:58;99614.72;;;11.16;57.77
19594;BME280;9944;48.240;16.478;2023-05-10T00:46:03;99611.25;;;11.08;58.17
19594;BME280;9944;48.240;16.478;2023-05-10T00:50:09;99604.28;;;11.03;58.50
19594;BME280;9944;48.240;16.478;2023-05-10T00:54:14;99605.16;;;11.00;59.05
19594;BME280;9944;48.240;16.478;2023-05-10T00:58:17;99608.72;;;10.96;59.26
19594;BME280;9944;48.240;16.478;2023-05-10T01:02:20;99592.03;;;10.92;59.06
19594;BME280;9944;48.240;16.478;2023-05-10T01:06:25;99593.81;;;10.90;59.39
19594;BME280;9944;48.240;16.478;2023-05-10T01:10:29;99590.34;;;10.87;59.40
19594;BME280;9944;48.240;16.478;2023-05-10T01:14:34;99581.56;;;10.81;59.60
19594;BME280;9944;48.240;16.478;2023-05-10T01:18:40;99583.38;;;10.76;59.61
19594;BME280;9944;48.240;16.478;2023-05-10T01:23:10;99584.25;;;10.72;59.61
19594;BME280;9944;48.240;16.478;2023-05-10T01:32:28;99572.09;;;10.53;60.88
19594;BME280;9944;48.240;16.478;2023-05-10T01:36:40;99566.84;;;10.50;60.83
19594;BME280;9944;48.240;16.478;2023-05-10T01:40:52;99561.59;;;10.47;60.81
19594;BME280;9944;48.240;16.478;2023-05-10T01:45:01;99556.38;;;10.39;61.40
19594;BME280;9944;48.240;16.478;2023-05-10T01:49:09;99555.50;;;10.35;61.35
19594;BME280;9944;48.240;16.478;2023-05-10T01:53:18;99557.31;;;10.30;61.68
19594;BME280;9944;48.240;16.478;2023-05-10T01:57:25;99557.38;;;10.24;61.92
19594;BME280;9944;48.240;16.478;2023-05-10T02:01:29;99551.25;;;10.16;61.89
19594;BME280;9944;48.240;16.478;2023-05-10T02:05:35;99551.25;;;10.13;62.27
19594;BME280;9944;48.240;16.478;2023-05-10T02:09:40;99540.75;;;10.07;62.86
19594;BME280;9944;48.240;16.478;2023-05-10T02:13:44;99540.78;;;10.02;62.96
19594;BME280;9944;48.240;16.478;2023-05-10T02:17:49;99542.56;;;9.98;63.04
19594;BME280;9944;48.240;16.478;2023-05-10T02:21:55;99546.06;;;9.94;63.39
19594;BME280;9944;48.240;16.478;2023-05-10T02:25:59;99542.56;;;9.94;63.47
19594;BME280;9944;48.240;16.478;2023-05-10T02:30:05;99539.03;;;9.90;63.72
19594;BME280;9944;48.240;16.478;2023-05-10T02:34:10;99538.19;;;9.88;63.88
19594;BME280;9944;48.240;16.478;2023-05-10T02:38:16;99547.88;;;9.83;64.60
19594;BME280;9944;48.240;16.478;2023-05-10T02:42:23;99546.09;;;9.82;64.55
19594;BME280;9944;48.240;16.478;2023-05-10T02:46:27;99538.25;;;9.79;64.23
19594;BME280;9944;48.240;16.478;2023-05-10T02:50:32;99548.78;;;9.74;64.56
19594;BME280;9944;48.240;16.478;2023-05-10T02:54:41;99544.41;;;9.72;64.97
19594;BME280;9944;48.240;16.478;2023-05-10T02:58:46;99546.16;;;9.66;65.12
19594;BME280;9944;48.240;16.478;2023-05-10T03:02:49;99544.44;;;9.62;64.90
19594;BME280;9944;48.240;16.478;2023-05-10T03:06:53;99548.84;;;9.60;65.36
19594;BME280;9944;48.240;16.478;2023-05-10T03:11:09;99547.97;;;9.58;65.41
19594;BME280;9944;48.240;16.478;2023-05-10T03:15:27;99547.13;;;9.55;65.44
19594;BME280;9944;48.240;16.478;2023-05-10T03:19:40;99555.03;;;9.50;65.62
19594;BME280;9944;48.240;16.478;2023-05-10T03:23:49;99554.16;;;9.46;65.77
19594;BME280;9944;48.240;16.478;2023-05-10T03:27:56;99556.81;;;9.40;66.08
19594;BME280;9944;48.240;16.478;2023-05-10T03:32:00;99546.31;;;9.37;66.25
19594;BME280;9944;48.240;16.478;2023-05-10T03:36:06;99566.47;;;9.38;66.31
19594;BME280;9944;48.240;16.478;2023-05-10T03:40:10;99567.38;;;9.34;66.54
19594;BME280;9944;48.240;16.478;2023-05-10T03:44:34;99568.25;;;9.31;66.82
19594;BME280;9944;48.240;16.478;2023-05-10T03:48:37;99563.88;;;9.27;67.12
19594;BME280;9944;48.240;16.478;2023-05-10T03:52:41;99574.41;;;9.29;67.25
19594;BME280;9944;48.240;16.478;2023-05-10T03:56:44;99575.28;;;9.26;67.54
19594;BME280;9944;48.240;16.478;2023-05-10T04:00:52;99570.03;;;9.25;67.90
19594;BME280;9944;48.240;16.478;2023-05-10T04:04:55;99579.69;;;9.24;68.05
19594;BME280;9944;48.240;16.478;2023-05-10T04:08:58;99569.16;;;9.24;67.71
19594;BME280;9944;48.240;16.478;2023-05-10T04:18:45;99588.47;;;9.23;68.27
19594;BME280;9944;48.240;16.478;2023-05-10T04:22:50;99578.81;;;9.22;68.52
19594;BME280;9944;48.240;16.478;2023-05-10T04:27:15;99577.06;;;9.20;68.66
19594;BME280;9944;48.240;16.478;2023-05-10T04:31:23;99589.34;;;9.21;68.97
19594;BME280;9944;48.240;16.478;2023-05-10T04:42:38;99584.09;;;9.27;68.71
19594;BME280;9944;48.240;16.478;2023-05-10T04:47:11;99579.69;;;9.27;69.44
19594;BME280;9944;48.240;16.478;2023-05-10T04:58:27;99590.19;;;9.38;69.01
19594;BME280;9944;48.240;16.478;2023-05-10T05:03:27;99588.41;;;9.42;69.23
19594;BME280;9944;48.240;16.478;2023-05-10T05:07:54;99591.03;;;9.53;69.11
19594;BME280;9944;48.240;16.478;2023-05-10T05:12:24;99588.38;;;9.60;69.84
19594;BME280;9944;48.240;16.478;2023-05-10T05:23:21;99594.38;;;10.01;68.09
19594;BME280;9944;48.240;16.478;2023-05-10T05:27:48;99584.59;;;10.26;67.67
19594;BME280;9944;48.240;16.478;2023-05-10T05:32:05;99598.50;;;10.50;67.73
19594;BME280;9944;48.240;16.478;2023-05-10T05:43:22;99590.84;;;11.26;66.40
19594;BME280;9944;48.240;16.478;2023-05-10T05:47:26;99586.13;;;11.57;65.85
19594;BME280;9944;48.240;16.478;2023-05-10T05:51:30;99585.81;;;11.83;65.10
19594;BME280;9944;48.240;16.478;2023-05-10T05:55:33;99590.03;;;12.03;64.24
19594;BME280;9944;48.240;16.478;2023-05-10T05:59:38;99596.81;;;12.22;63.70
19594;BME280;9944;48.240;16.478;2023-05-10T06:03:43;99596.44;;;12.47;63.69
19594;BME280;9944;48.240;16.478;2023-05-10T06:07:46;99596.06;;;12.75;62.61
19594;BME280;9944;48.240;16.478;2023-05-10T06:11:49;99609.88;;;12.95;62.51
19594;BME280;9944;48.240;16.478;2023-05-10T06:15:54;99611.19;;;13.21;62.10
19594;BME280;9944;48.240;16.478;2023-05-10T06:19:57;99601.94;;;13.43;61.20
19594;BME280;9944;48.240;16.478;2023-05-10T06:24:00;99604.22;;;13.62;61.09
19594;BME280;9944;48.240;16.478;2023-05-10T06:28:04;99611.91;;;13.79;59.71
19594;BME280;9944;48.240;16.478;2023-05-10T06:32:09;99610.78;;;13.91;59.87
19594;BME280;9944;48.240;16.478;2023-05-10T06:36:12;99614.78;;;14.10;59.41
19594;BME280;9944;48.240;16.478;2023-05-10T06:40:16;99608.16;;;14.30;59.47
19594;BME280;9944;48.240;16.478;2023-05-10T06:44:19;99612.09;;;14.52;59.09
19594;BME280;9944;48.240;16.478;2023-05-10T06:48:23;99613.28;;;14.78;58.95
19594;BME280;9944;48.240;16.478;2023-05-10T06:52:26;99610.19;;;14.98;58.62
19594;BME280;9944;48.240;16.478;2023-05-10T06:56:30;99615.97;;;15.14;57.85
19594;BME280;9944;48.240;16.478;2023-05-10T07:00:33;99605.09;;;15.23;57.17
19594;BME280;9944;48.240;16.478;2023-05-10T07:04:37;99608.28;;;15.38;56.50
19594;BME280;9944;48.240;16.478;2023-05-10T07:08:41;99605.56;;;15.39;56.10
19594;BME280;9944;48.240;16.478;2023-05-10T07:12:44;99612.38;;;15.49;55.83
19594;BME280;9944;48.240;16.478;2023-05-10T07:16:47;99613.00;;;15.59;55.46
19594;BME280;9944;48.240;16.478;2023-05-10T07:20:52;99615.16;;;15.78;55.24
19594;BME280;9944;48.240;16.478;2023-05-10T07:24:55;99602.28;;;15.95;54.91
19594;BME280;9944;48.240;16.478;2023-05-10T07:28:58;99600.13;;;16.08;54.84
19594;BME280;9944;48.240;16.478;2023-05-10T07:33:02;99612.28;;;16.17;54.24
19594;BME280;9944;48.240;16.478;2023-05-10T07:37:06;99597.81;;;16.25;54.66
19594;BME280;9944;48.240;16.478;2023-05-10T07:41:09;99602.56;;;16.46;54.50
19594;BME280;9944;48.240;16.478;2023-05-10T07:45:12;99599.41;;;16.61;54.66
19594;BME280;9944;48.240;16.478;2023-05-10T07:49:15;99586.59;;;16.72;54.21
19594;BME280;9944;48.240;16.478;2023-05-10T07:53:20;99592.50;;;16.84;53.70
19594;BME280;9944;48.240;16.478;2023-05-10T07:57:23;99596.69;;;16.91;53.08
19594;BME280;9944;48.240;16.478;2023-05-10T08:01:29;99589.69;;;16.87;52.94
19594;BME280;9944;48.240;16.478;2023-05-10T08:05:32;99587.56;;;16.98;52.88
19594;BME280;9944;48.240;16.478;2023-05-10T08:09:37;99600.38;;;17.13;51.79
19594;BME280;9944;48.240;16.478;2023-05-10T08:13:40;99587.81;;;17.17;52.07
19594;BME280;9944;48.240;16.478;2023-05-10T08:17:44;99595.72;;;17.20;51.64
19594;BME280;9944;48.240;16.478;2023-05-10T08:21:47;99604.44;;;17.25;51.16
19594;BME280;9944;48.240;16.478;2023-05-10T08:25:51;99599.03;;;17.27;50.95
19594;BME280;9944;48.240;16.478;2023-05-10T08:29:55;99602.22;;;17.38;51.30
19594;BME280;9944;48.240;16.478;2023-05-10T08:33:58;99604.38;;;17.52;50.95
19594;BME280;9944;48.240;16.478;2023-05-10T08:38:02;99599.50;;;17.40;49.51
19594;BME280;9944;48.240;16.478;2023-05-10T08:42:07;99598.81;;;17.33;49.60
19594;BME280;9944;48.240;16.478;2023-05-10T08:46:15;99601.16;;;17.42;49.65
19594;BME280;9944;48.240;16.478;2023-05-10T08:50:20;99600.53;;;17.61;49.73
19594;BME280;9944;48.240;16.478;2023-05-10T08:54:24;99603.59;;;17.75;49.05
19594;BME280;9944;48.240;16.478;2023-05-10T08:58:29;99591.63;;;17.85;49.50
19594;BME280;9944;48.240;16.478;2023-05-10T09:02:32;99584.13;;;17.97;48.48
19594;BME280;9944;48.240;16.478;2023-05-10T09:06:36;99594.44;;;18.06;48.69
19594;BME280;9944;48.240;16.478;2023-05-10T09:10:39;99596.81;;;18.13;48.33
19594;BME280;9944;48.240;16.478;2023-05-10T09:14:46;99592.09;;;18.20;47.42
19594;BME280;9944;48.240;16.478;2023-05-10T09:18:49;99603.16;;;18.11;48.03
19594;BME280;9944;48.240;16.478;2023-05-10T09:22:53;99595.72;;;18.19;48.00
19594;BME280;9944;48.240;16.478;2023-05-10T09:26:57;99598.72;;;18.34;47.75
19594;BME280;9944;48.240;16.478;2023-05-10T09:31:01;99597.13;;;18.29;48.16
19594;BME280;9944;48.240;16.478;2023-05-10T09:35:08;99609.88;;;18.21;48.15
19594;BME280;9944;48.240;16.478;2023-05-10T09:39:11;99597.81;;;18.11;48.21
19594;BME280;9944;48.240;16.478;2023-05-10T09:43:15;99597.66;;;18.16;48.09
19594;BME280;9944;48.240;16.478;2023-05-10T09:47:19;99594.88;;;18.17;48.21
19594;BME280;9944;48.240;16.478;2023-05-10T09:51:23;99586.06;;;18.39;48.49
19594;BME280;9944;48.240;16.478;2023-05-10T09:55:38;99586.38;;;18.53;47.37
19594;BME280;9944;48.240;16.478;2023-05-10T09:59:42;99583.56;;;18.56;46.74
19594;BME280;9944;48.240;16.478;2023-05-10T10:03:49;99578.63;;;18.69;46.67
19594;BME280;9944;48.240;16.478;2023-05-10T10:07:52;99569.59;;;18.94;46.24
19594;BME280;9944;48.240;16.478;2023-05-10T10:11:55;99583.31;;;19.06;46.70
19594;BME280;9944;48.240;16.478;2023-05-10T10:15:59;99569.88;;;19.08;46.02
19594;BME280;9944;48.240;16.478;2023-05-10T10:20:04;99572.63;;;19.06;46.40
19594;BME280;9944;48.240;16.478;2023-05-10T10:24:10;99571.41;;;19.14;46.51
19594;BME280;9944;48.240;16.478;2023-05-10T10:28:24;99564.88;;;19.21;44.76
19594;BME280;9944;48.240;16.478;2023-05-10T10:32:38;99565.34;;;19.31;45.06
19594;BME280;9944;48.240;16.478;2023-05-10T10:36:47;99569.84;;;19.30;45.05
19594;BME280;9944;48.240;16.478;2023-05-10T10:41:02;99576.28;;;19.47;44.97
19594;BME280;9944;48.240;16.478;2023-05-10T10:45:12;99568.25;;;19.47;45.03
19594;BME280;9944;48.240;16.478;2023-05-10T10:49:16;99564.22;;;19.57;45.06
19594;BME280;9944;48.240;16.478;2023-05-10T10:53:20;99571.78;;;19.68;44.78
19594;BME280;9944;48.240;16.478;2023-05-10T10:57:24;99566.81;;;19.79;44.98
19594;BME280;9944;48.240;16.478;2023-05-10T11:01:33;99558.16;;;19.93;44.85
19594;BME280;9944;48.240;16.478;2023-05-10T11:05:39;99553.38;;;19.99;42.58
19594;BME280;9944;48.240;16.478;2023-05-10T11:09:43;99557.25;;;19.92;42.76
19594;BME280;9944;48.240;16.478;2023-05-10T11:13:46;99550.75;;;19.98;43.50
19594;BME280;9944;48.240;16.478;2023-05-10T11:17:52;99550.59;;;20.01;43.38
19594;BME280;9944;48.240;16.478;2023-05-10T11:22:12;99545.53;;;19.95;43.03
19594;BME280;9944;48.240;16.478;2023-05-10T11:26:17;99547.72;;;20.06;42.19
19594;BME280;9944;48.240;16.478;2023-05-10T11:30:24;99550.53;;;20.22;42.47
19594;BME280;9944;48.240;16.478;2023-05-10T11:34:29;99551.69;;;20.16;42.37
19594;BME280;9944;48.240;16.478;2023-05-10T11:38:32;99549.75;;;20.19;42.11
19594;BME280;9944;48.240;16.478;2023-05-10T11:42:37;99545.97;;;20.24;42.16
19594;BME280;9944;48.240;16.478;2023-05-10T11:46:40;99538.28;;;20.16;42.21
19594;BME280;9944;48.240;16.478;2023-05-10T11:50:44;99535.41;;;20.02;41.80
19594;BME280;9944;48.240;16.478;2023-05-10T11:54:51;99543.00;;;19.92;41.84
19594;BME280;9944;48.240;16.478;2023-05-10T11:58:56;99530.63;;;19.89;41.75
19594;BME280;9944;48.240;16.478;2023-05-10T12:03:00;99542.91;;;19.74;41.98
19594;BME280;9944;48.240;16.478;2023-05-10T12:07:04;99544.13;;;19.67;42.82
19594;BME280;9944;48.240;16.478;2023-05-10T12:11:09;99545.53;;;19.76;42.16
19594;BME280;9944;48.240;16.478;2023-05-10T12:15:18;99546.94;;;19.64;42.31
19594;BME280;9944;48.240;16.478;2023-05-10T12:19:21;99548.41;;;19.71;42.15
19594;BME280;9944;48.240;16.478;2023-05-10T12:23:26;99541.97;;;19.75;42.10
19594;BME280;9944;48.240;16.478;2023-05-10T12:27:31;99538.56;;;19.72;41.89
19594;BME280;9944;48.240;16.478;2023-05-10T12:31:48;99539.13;;;19.78;42.44
19594;BME280;9944;48.240;16.478;2023-05-10T12:35:54;99537.28;;;19.80;41.59
19594;BME280;9944;48.240;16.478;2023-05-10T12:39:58;99545.03;;;19.87;41.25
19594;BME280;9944;48.240;16.478;2023-05-10T12:44:01;99520.63;;;19.93;41.88
19594;BME280;9944;48.240;16.478;2023-05-10T12:48:05;99523.66;;;20.04;42.05
19594;BME280;9944;48.240;16.478;2023-05-10T12:52:08;99528.16;;;20.04;41.32
19594;BME280;9944;48.240;16.478;2023-05-10T12:56:11;99514.56;;;20.08;42.38
19594;BME280;9944;48.240;16.478;2023-05-10T13:00:15;99521.19;;;20.18;41.71
19594;BME280;9944;48.240;16.478;2023-05-10T13:04:20;99516.88;;;20.35;41.22
19594;BME280;9944;48.240;16.478;2023-05-10T13:08:25;99522.50;;;20.29;42.11
19594;BME280;9944;48.240;16.478;2023-05-10T13:12:28;99519.16;;;20.24;41.46
19594;BME280;9944;48.240;16.478;2023-05-10T13:16:31;99512.34;;;20.16;41.52
19594;BME280;9944;48.240;16.478;2023-05-10T13:20:35;99508.94;;;20.13;41.30
19594;BME280;9944;48.240;16.478;2023-05-10T13:24:38;99515.47;;;20.07;41.43
19594;BME280;9944;48.240;16.478;2023-05-10T13:28:42;99515.56;;;20.06;41.16
19594;BME280;9944;48.240;16.478;2023-05-10T13:32:45;99509.47;;;20.02;41.47
19594;BME280;9944;48.240;16.478;2023-05-10T13:36:49;99508.53;;;20.03;41.94
19594;BME280;9944;48.240;16.478;2023-05-10T13:40:53;99508.38;;;20.06;41.92
19594;BME280;9944;48.240;16.478;2023-05-10T13:44:56;99514.38;;;20.11;40.28
19594;BME280;9944;48.240;16.478;2023-05-10T13:48:59;99510.97;;;20.08;40.41
19594;BME280;9944;48.240;16.478;2023-05-10T13:53:03;99516.41;;;20.06;40.00
19594;BME280;9944;48.240;16.478;2023-05-10T13:57:07;99499.59;;;20.03;39.47
19594;BME280;9944;48.240;16.478;2023-05-10T14:01:10;99493.66;;;19.96;38.78
19594;BME280;9944;48.240;16.478;2023-05-10T14:05:13;99490.19;;;19.94;38.40
19594;BME280;9944;48.240;16.478;2023-05-10T14:09:20;99500.13;;;19.92;39.00
19594;BME280;9944;48.240;16.478;2023-05-10T14:13:23;99494.31;;;20.01;39.56
19594;BME280;9944;48.240;16.478;2023-05-10T14:17:27;99483.31;;;20.07;39.63
19594;BME280;9944;48.240;16.478;2023-05-10T14:21:30;99495.16;;;20.03;40.00
19594;BME280;9944;48.240;16.478;2023-05-10T14:25:35;99494.69;;;19.93;39.38
19594;BME280;9944;48.240;16.478;2023-05-10T14:29:39;99488.75;;;19.87;39.65
19594;BME280;9944;48.240;16.478;2023-05-10T14:33:42;99488.91;;;19.84;39.63
19594;BME280;9944;48.240;16.478;2023-05-10T14:37:46;99476.31;;;19.86;39.51
19594;BME280;9944;48.240;16.478;2023-05-10T14:41:50;99478.25;;;19.82;40.40
19594;BME280;9944;48.240;16.478;2023-05-10T14:45:54;99484.50;;;19.83;40.03
19594;BME280;9944;48.240;16.478;2023-05-10T14:49:57;99477.25;;;19.85;40.03
19594;BME280;9944;48.240;16.478;2023-05-10T14:54:00;99480.84;;;19.84;39.41
19594;BME280;9944;48.240;16.478;2023-05-10T14:58:05;99482.53;;;19.86;39.92
19594;BME280;9944;48.240;16.478;2023-05-10T15:02:08;99482.22;;;19.92;40.27
19594;BME280;9944;48.240;16.478;2023-05-10T15:06:14;99487.69;;;19.91;39.53
19594;BME280;9944;48.240;16.478;2023-05-10T15:10:17;99486.22;;;19.84;40.27
19594;BME280;9944;48.240;16.478;2023-05-10T15:14:22;99495.34;;;19.79;40.65
19594;BME280;9944;48.240;16.478;2023-05-10T15:18:25;99490.00;;;19.79;40.14
19594;BME280;9944;48.240;16.478;2023-05-10T15:22:28;99492.38;;;19.67;40.21
19594;BME280;9944;48.240;16.478;2023-05-10T15:26:35;99498.28;;;19.54;40.26
19594;BME280;9944;48.240;16.478;2023-05-10T15:30:39;99504.00;;;19.47;40.71
19594;BME280;9944;48.240;16.478;2023-05-10T15:34:42;99491.47;;;19.47;40.70
19594;BME280;9944;48.240;16.478;2023-05-10T15:38:45;99483.47;;;19.45;41.21
19594;BME280;9944;48.240;16.478;2023-05-10T15:42:48;99495.13;;;19.44;41.27
19594;BME280;9944;48.240;16.478;2023-05-10T15:46:53;99486.50;;;19.38;40.51
19594;BME280;9944;48.240;16.478;2023-05-10T15:50:56;99490.72;;;19.23;40.64
19594;BME280;9944;48.240;16.478;2023-05-10T15:54:59;99492.22;;;19.10;41.02
19594;BME280;9944;48.240;16.478;2023-05-10T15:59:02;99495.28;;;19.00;40.87
19594;BME280;9944;48.240;16.478;2023-05-10T16:03:08;99491.00;;;18.96;41.10
19594;BME280;9944;48.240;16.478;2023-05-10T16:07:11;99493.88;;;18.92;41.29
19594;BME280;9944;48.240;16.478;2023-05-10T16:11:14;99507.47;;;18.87;41.30
19594;BME280;9944;48.240;16.478;2023-05-10T16:15:17;99502.25;;;18.84;41.04
19594;BME280;9944;48.240;16.478;2023-05-10T16:19:23;99502.19;;;18.85;41.34
19594;BME280;9944;48.240;16.478;2023-05-10T16:23:30;99505.84;;;18.83;41.07
19594;BME280;9944;48.240;16.478;2023-05-10T16:27:33;99495.47;;;18.75;40.93
19594;BME280;9944;48.240;16.478;2023-05-10T16:31:37;99494.75;;;18.72;41.19
19594;BME280;9944;48.240;16.478;2023-05-10T16:35:41;99498.47;;;18.67;41.24
19594;BME280;9944;48.240;16.478;2023-05-10T16:39:44;99494.94;;;18.67;41.45
19594;BME280;9944;48.240;16.478;2023-05-10T16:43:47;99504.88;;;18.63;41.13
19594;BME280;9944;48.240;16.478;2023-05-10T16:47:51;99511.97;;;18.64;41.40
19594;BME280;9944;48.240;16.478;2023-05-10T16:51:56;99522.75;;;18.61;41.04
19594;BME280;9944;48.240;16.478;2023-05-10T16:56:00;99509.03;;;18.48;40.63
19594;BME280;9944;48.240;16.478;2023-05-10T17:00:05;99526.25;;;18.41;41.31
19594;BME280;9944;48.240;16.478;2023-05-10T17:04:09;99522.41;;;18.26;41.87
19594;BME280;9944;48.240;16.478;2023-05-10T17:08:13;99522.75;;;18.17;41.85
19594;BME280;9944;48.240;16.478;2023-05-10T17:12:17;99524.88;;;18.09;42.04
19594;BME280;9944;48.240;16.478;2023-05-10T17:16:20;99529.47;;;18.05;42.19
19594;BME280;9944;48.240;16.478;2023-05-10T17:20:23;99533.09;;;18.03;42.44
19594;BME280;9944;48.240;16.478;2023-05-10T17:24:28;99534.91;;;18.02;42.72
19594;BME280;9944;48.240;16.478;2023-05-10T17:28:31;99543.00;;;18.01;42.67
19594;BME280;9944;48.240;16.478;2023-05-10T17:32:34;99543.22;;;17.94;42.51
19594;BME280;9944;48.240;16.478;2023-05-10T17:36:38;99545.31;;;17.86;42.66
19594;BME280;9944;48.240;16.478;2023-05-10T17:40:42;99544.78;;;17.77;42.40
19594;BME280;9944;48.240;16.478;2023-05-10T17:44:45;99549.44;;;17.70;42.63
19594;BME280;9944;48.240;16.478;2023-05-10T17:48:48;99551.41;;;17.65;42.86
19594;BME280;9944;48.240;16.478;2023-05-10T17:52:52;99556.75;;;17.65;43.21
19594;BME280;9944;48.240;16.478;2023-05-10T17:56:56;99554.34;;;17.59;43.04
19594;BME280;9944;48.240;16.478;2023-05-10T18:01:01;99563.44;;;17.53;43.22
19594;BME280;9944;48.240;16.478;2023-05-10T18:05:05;99559.97;;;17.49;43.42
19594;BME280;9944;48.240;16.478;2023-05-10T18:09:09;99571.69;;;17.45;43.53
19594;BME280;9944;48.240;16.478;2023-05-10T18:13:13;99573.66;;;17.40;43.72
19594;BME280;9944;48.240;16.478;2023-05-10T18:17:16;99581.06;;;17.32;43.89
19594;BME280;9944;48.240;16.478;2023-05-10T18:21:20;99572.34;;;17.27;43.99
19594;BME280;9944;48.240;16.478;2023-05-10T18:25:23;99585.97;;;17.19;44.28
19594;BME280;9944;48.240;16.478;2023-05-10T18:29:27;99588.09;;;17.08;44.39
19594;BME280;9944;48.240;16.478;2023-05-10T18:33:30;99587.47;;;17.01;44.61
19594;BME280;9944;48.240;16.478;2023-05-10T18:37:34;99587.56;;;16.98;44.68
19594;BME280;9944;48.240;16.478;2023-05-10T18:41:37;99592.09;;;16.96;44.84
19594;BME280;9944;48.240;16.478;2023-05-10T18:45:41;99599.25;;;16.94;45.03
19594;BME280;9944;48.240;16.478;2023-05-10T18:49:45;99603.72;;;16.93;45.08
19594;BME280;9944;48.240;16.478;2023-05-10T18:53:48;99607.38;;;16.91;45.52
19594;BME280;9944;48.240;16.478;2023-05-10T18:57:51;99618.03;;;16.91;45.13
19594;BME280;9944;48.240;16.478;2023-05-10T19:01:55;99611.03;;;16.87;45.23
19594;BME280;9944;48.240;16.478;2023-05-10T19:05:59;99623.50;;;16.86;45.51
19594;BME280;9944;48.240;16.478;2023-05-10T19:10:02;99629.75;;;16.85;45.50
19594;BME280;9944;48.240;16.478;2023-05-10T19:14:05;99631.59;;;16.81;45.67
19594;BME280;9944;48.240;16.478;2023-05-10T19:18:09;99637.06;;;16.78;45.79
19594;BME280;9944;48.240;16.478;2023-05-10T19:22:15;99635.31;;;16.77;45.75
19594;BME280;9944;48.240;16.478;2023-05-10T19:26:37;99635.34;;;16.76;45.86
19594;BME280;9944;48.240;16.478;2023-05-10T19:30:40;99636.22;;;16.76;46.00
19594;BME280;9944;48.240;16.478;2023-05-10T19:34:44;99640.78;;;16.73;46.41
19594;BME280;9944;48.240;16.478;2023-05-10T19:38:47;99642.75;;;16.66;46.26
19594;BME280;9944;48.240;16.478;2023-05-10T19:42:53;99640.28;;;16.60;46.20
19594;BME280;9944;48.240;16.478;2023-05-10T19:46:57;99639.53;;;16.56;46.63
19594;BME280;9944;48.240;16.478;2023-05-10T19:51:04;99643.13;;;16.54;46.40
19594;BME280;9944;48.240;16.478;2023-05-10T19:55:24;99639.66;;;16.52;46.64
19594;BME280;9944;48.240;16.478;2023-05-10T19:59:28;99633.50;;;16.50;46.78
19594;BME280;9944;48.240;16.478;2023-05-10T20:03:32;99644.16;;;16.50;47.00
19594;BME280;9944;48.240;16.478;2023-05-10T20:07:37;99643.38;;;16.46;47.09
19594;BME280;9944;48.240;16.478;2023-05-10T20:11:40;99647.94;;;16.42;46.97
19594;BME280;9944;48.240;16.478;2023-05-10T20:15:43;99648.81;;;16.43;47.26
19594;BME280;9944;48.240;16.478;2023-05-10T20:19:46;99639.94;;;16.42;47.49
19594;BME280;9944;48.240;16.478;2023-05-10T20:23:50;99645.31;;;16.41;47.55
19594;BME280;9944;48.240;16.478;2023-05-10T20:27:53;99650.78;;;16.36;47.58
19594;BME280;9944;48.240;16.478;2023-05-10T20:31:56;99659.91;;;16.28;47.54
19594;BME280;9944;48.240;16.478;2023-05-10T20:35:59;99648.56;;;16.21;47.80
19594;BME280;9944;48.240;16.478;2023-05-10T20:40:05;99649.63;;;16.15;47.75
19594;BME280;9944;48.240;16.478;2023-05-10T20:44:08;99652.38;;;16.12;48.16
19594;BME280;9944;48.240;16.478;2023-05-10T20:48:11;99647.94;;;16.13;48.27
19594;BME280;9944;48.240;16.478;2023-05-10T20:52:15;99648.84;;;16.12;48.37
19594;BME280;9944;48.240;16.478;2023-05-10T20:56:19;99658.66;;;16.10;48.47
19594;BME280;9944;48.240;16.478;2023-05-10T21:00:22;99650.84;;;16.03;48.74
19594;BME280;9944;48.240;16.478;2023-05-10T21:04:26;99649.28;;;15.96;48.60
19594;BME280;9944;48.240;16.478;2023-05-10T21:08:29;99654.78;;;15.90;48.77
19594;BME280;9944;48.240;16.478;2023-05-10T21:12:33;99645.13;;;15.86;49.05
19594;BME280;9944;48.240;16.478;2023-05-10T21:16:36;99641.78;;;15.78;49.17
19594;BME280;9944;48.240;16.478;2023-05-10T21:20:39;99641.09;;;15.71;49.15
19594;BME280;9944;48.240;16.478;2023-05-10T21:24:42;99636.81;;;15.65;49.16
19594;BME280;9944;48.240;16.478;2023-05-10T21:28:47;99648.59;;;15.55;49.23
19594;BME280;9944;48.240;16.478;2023-05-10T21:32:50;99650.53;;;15.50;49.53
19594;BME280;9944;48.240;16.478;2023-05-10T21:36:54;99641.00;;;15.41;49.72
19594;BME280;9944;48.240;16.478;2023-05-10T21:40:57;99654.47;;;15.34;49.60
19594;BME280;9944;48.240;16.478;2023-05-10T21:45:02;99654.72;;;15.24;49.88
19594;BME280;9944;48.240;16.478;2023-05-10T21:49:05;99659.22;;;15.22;50.18
19594;BME280;9944;48.240;16.478;2023-05-10T21:53:08;99662.88;;;15.17;50.24
19594;BME280;9944;48.240;16.478;2023-05-10T21:57:12;99651.44;;;15.13;50.24
19594;BME280;9944;48.240;16.478;2023-05-10T22:01:17;99657.81;;;15.06;50.17
19594;BME280;9944;48.240;16.478;2023-05-10T22:05:21;99658.03;;;14.98;50.19
19594;BME280;9944;48.240;16.478;2023-05-10T22:09:24;99672.31;;;14.92;50.12
19594;BME280;9944;48.240;16.478;2023-05-10T22:13:27;99661.00;;;14.84;50.39
19594;BME280;9944;48.240;16.478;2023-05-10T22:17:34;99664.69;;;14.77;50.45
19594;BME280;9944;48.240;16.478;2023-05-10T22:21:37;99667.50;;;14.69;50.27